Weather reports worldwide

Advertisment
Menorca Airport, Spain (2008314): temperature & dewpoint: 16.02.2019 02:00:00 - 22.02.2019 02:00:00 (CET)Menorca Airport, Spain (2008314): wind speed: 16.02.2019 02:00:00 - 22.02.2019 02:00:00 (CET)Menorca Airport, Spain (2008314): wind direction: 16.02.2019 02:00:00 - 22.02.2019 02:00:00 (CET)Menorca Airport, Spain (2008314): visibility: 16.02.2019 02:00:00 - 22.02.2019 02:00:00 (CET)
Date & Time tt [°C] td [°C] ff [km/h] ff [kn] dd vv [km]
22.02.2019 02:00:00 6,0 5,0 8 4 NW 10
22.02.2019 01:00:00 7,0 5,0 9 5 WNW 10
22.02.2019 00:00:00 7,0 6,0 8 4 WNW 10
21.02.2019 23:00:00 6,0 5,0 5 3 W 10
21.02.2019 22:00:00 7,0 5,0 4 2 SW 10
21.02.2019 21:00:00 7,0 5,0 2 1 SW 10
21.02.2019 20:00:00 8,0 4,0 0 0 N 10
21.02.2019 19:00:00 11,0 6,0 4 2 - 10
21.02.2019 18:00:00 12,0 6,0 9 5 E 10
21.02.2019 17:00:00 12,0 6,0 8 4 SSE 10
21.02.2019 16:00:00 13,0 6,0 5 3 - 10
21.02.2019 15:00:00 12,0 6,0 5 3 E 10
21.02.2019 14:00:00 13,0 6,0 8 4 S 10
21.02.2019 13:00:00 13,0 7,0 13 7 SSW 10
21.02.2019 12:00:00 14,0 6,0 5 3 NE 10
21.02.2019 11:00:00 13,0 5,0 4 2 - 10
21.02.2019 10:00:00 12,0 6,0 5 3 E 10
21.02.2019 09:00:00 - - - - - -
21.02.2019 08:00:00 6,0 4,0 4 2 N 10
21.02.2019 07:00:00 7,0 4,0 8 4 N 10
21.02.2019 06:00:00 8,0 5,0 9 5 N 10
21.02.2019 05:00:00 6,0 4,0 8 4 N 10
21.02.2019 04:00:00 6,0 4,0 5 3 N 10
21.02.2019 03:00:00 6,0 5,0 4 2 N 10
21.02.2019 02:00:00 6,0 4,0 0 0 N 10
21.02.2019 01:00:00 6,0 4,0 0 0 N 10
21.02.2019 00:00:00 6,0 5,0 0 0 N 10
20.02.2019 23:00:00 6,0 5,0 0 0 N 10
20.02.2019 22:00:00 10,0 6,0 5 3 ENE 10
20.02.2019 21:00:00 10,0 6,0 8 4 E 10
20.02.2019 20:00:00 10,0 6,0 9 5 E 10
20.02.2019 19:00:00 11,0 5,0 9 5 ENE 10
20.02.2019 18:00:00 12,0 5,0 11 6 ENE 10
20.02.2019 17:00:00 13,0 6,0 11 6 E 10
20.02.2019 16:00:00 13,0 6,0 13 7 E 10
20.02.2019 15:00:00 13,0 5,0 9 5 ENE 10
20.02.2019 14:00:00 14,0 5,0 11 6 ENE 10
20.02.2019 13:00:00 15,0 6,0 11 6 ESE 10
20.02.2019 12:00:00 14,0 6,0 13 7 E 10
20.02.2019 11:00:00 13,0 7,0 8 4 ENE 10
20.02.2019 10:00:00 11,0 8,0 8 4 N 10
20.02.2019 09:00:00 8,0 7,0 8 4 N 10
20.02.2019 08:00:00 7,0 5,0 11 6 N 10
20.02.2019 07:00:00 7,0 5,0 13 7 N 10
20.02.2019 06:00:00 7,0 5,0 11 6 N 10
20.02.2019 05:00:00 7,0 5,0 11 6 N 10
20.02.2019 04:00:00 6,0 4,0 8 4 N 10
20.02.2019 03:00:00 7,0 5,0 9 5 N 10
20.02.2019 02:00:00 8,0 5,0 8 4 NNE 10
20.02.2019 01:00:00 9,0 7,0 5 3 N 10
20.02.2019 00:00:00 10,0 7,0 8 4 NE 10
19.02.2019 23:00:00 9,0 7,0 8 4 NNE 10
19.02.2019 22:00:00 9,0 7,0 9 5 N 10
19.02.2019 21:00:00 9,0 8,0 9 5 NNE 10
19.02.2019 20:00:00 11,0 8,0 8 4 NE 10
19.02.2019 19:00:00 11,0 7,0 11 6 NNE 10
19.02.2019 18:00:00 12,0 7,0 15 8 NE 10
19.02.2019 17:00:00 13,0 7,0 15 8 NE 10
19.02.2019 16:00:00 13,0 6,0 13 7 ENE 10
19.02.2019 15:00:00 13,0 6,0 15 8 ENE 10
19.02.2019 14:00:00 13,0 5,0 13 7 E 10
19.02.2019 13:00:00 13,0 6,0 16 9 E 10
19.02.2019 12:00:00 13,0 6,0 15 8 ENE 10
19.02.2019 11:00:00 13,0 6,0 16 9 E 10
19.02.2019 10:00:00 12,0 7,0 11 6 ENE 10
19.02.2019 09:00:00 11,0 8,0 8 4 E 10
19.02.2019 08:00:00 10,0 7,0 9 5 E 10
19.02.2019 07:00:00 10,0 7,0 11 6 ENE 10
19.02.2019 06:00:00 10,0 7,0 8 4 ESE 10
19.02.2019 05:00:00 9,0 6,0 11 6 SE 10
19.02.2019 04:00:00 9,0 6,0 11 6 ESE 10
19.02.2019 03:00:00 10,0 7,0 9 5 ESE 10
19.02.2019 02:00:00 10,0 7,0 8 4 ESE 10
19.02.2019 01:00:00 10,0 7,0 9 5 ESE 10
19.02.2019 00:00:00 9,0 7,0 11 6 ESE 10
18.02.2019 23:00:00 10,0 7,0 11 6 E 10
18.02.2019 22:00:00 10,0 8,0 8 4 ESE 10
18.02.2019 21:00:00 10,0 8,0 9 5 ESE 10
18.02.2019 20:00:00 9,0 7,0 11 6 ESE 10
18.02.2019 19:00:00 11,0 8,0 8 4 E 10
18.02.2019 18:00:00 12,0 9,0 11 6 E 10
18.02.2019 17:00:00 13,0 9,0 15 8 ESE 10
18.02.2019 16:00:00 14,0 9,0 18 10 ESE 10
18.02.2019 15:00:00 14,0 9,0 16 9 SE 10
18.02.2019 14:00:00 14,0 9,0 18 10 ESE 10
18.02.2019 13:00:00 14,0 10,0 16 9 ESE 10
18.02.2019 12:00:00 14,0 10,0 18 10 ESE 10
18.02.2019 11:00:00 14,0 9,0 18 10 SE 10
18.02.2019 10:00:00 13,0 10,0 18 10 SE 10
18.02.2019 09:00:00 11,0 9,0 11 6 ESE 10
18.02.2019 08:00:00 10,0 9,0 11 6 ESE 10
18.02.2019 07:00:00 9,0 8,0 11 6 ESE 10
18.02.2019 06:00:00 9,0 8,0 9 5 ESE 10
18.02.2019 05:00:00 10,0 8,0 11 6 ESE 10
18.02.2019 04:00:00 10,0 9,0 9 5 SE 10
18.02.2019 03:00:00 10,0 9,0 9 5 SE 10
18.02.2019 02:00:00 10,0 9,0 11 6 SE 10
18.02.2019 01:00:00 10,0 9,0 11 6 SE 10
18.02.2019 00:00:00 10,0 9,0 9 5 SE 10
17.02.2019 23:00:00 10,0 9,0 9 5 SE 10
17.02.2019 22:00:00 11,0 9,0 11 6 SE 10
17.02.2019 21:00:00 11,0 9,0 11 6 SE 10
17.02.2019 20:00:00 12,0 9,0 13 7 SE 10
17.02.2019 19:00:00 12,0 9,0 11 6 SE 10
17.02.2019 18:00:00 13,0 9,0 13 7 SE 10
17.02.2019 17:00:00 13,0 9,0 18 10 SE 10
17.02.2019 16:00:00 14,0 9,0 18 10 SE 10
17.02.2019 15:00:00 14,0 9,0 18 10 SE 10
17.02.2019 14:00:00 14,0 9,0 18 10 SE 10
17.02.2019 13:00:00 14,0 9,0 18 10 ESE 10
17.02.2019 12:00:00 14,0 9,0 21 11 SE 10
17.02.2019 11:00:00 14,0 9,0 16 9 SE 10
17.02.2019 10:00:00 13,0 8,0 13 7 SE 10
17.02.2019 09:00:00 11,0 8,0 11 6 ESE 10
17.02.2019 08:00:00 9,0 7,0 13 7 ESE 10
17.02.2019 07:00:00 9,0 7,0 11 6 ESE 10
17.02.2019 06:00:00 9,0 8,0 11 6 SE 10
17.02.2019 05:00:00 9,0 8,0 9 5 ESE 10
17.02.2019 04:00:00 9,0 8,0 11 6 ESE 10
17.02.2019 03:00:00 10,0 9,0 9 5 ESE 10
17.02.2019 02:00:00 10,0 9,0 9 5 ESE 10
17.02.2019 01:00:00 10,0 9,0 9 5 ESE 10
17.02.2019 00:00:00 10,0 9,0 9 5 ESE 10
16.02.2019 23:00:00 10,0 9,0 9 5 ESE 10
16.02.2019 22:00:00 10,0 9,0 9 5 E 10
16.02.2019 21:00:00 11,0 9,0 8 4 E 10
16.02.2019 20:00:00 11,0 10,0 2 1 - 10
16.02.2019 19:00:00 12,0 10,0 8 4 E 10
16.02.2019 18:00:00 13,0 10,0 9 5 E 10
16.02.2019 17:00:00 14,0 10,0 13 7 E 10
16.02.2019 16:00:00 14,0 10,0 13 7 E 10
16.02.2019 15:00:00 15,0 10,0 13 7 E 10
16.02.2019 14:00:00 15,0 11,0 15 8 ENE 10
16.02.2019 13:00:00 14,0 10,0 16 9 E 10
16.02.2019 12:00:00 14,0 11,0 18 10 ENE 10
16.02.2019 11:00:00 13,0 10,0 16 9 ENE 10
16.02.2019 10:00:00 12,0 10,0 15 8 NE 10
16.02.2019 09:00:00 10,0 9,0 16 9 NE 10
16.02.2019 08:00:00 8,0 7,0 16 9 NNE 10
16.02.2019 07:00:00 7,0 7,0 21 11 NNE 10
16.02.2019 06:00:00 7,0 7,0 21 11 NNE 10
16.02.2019 05:00:00 5,0 4,0 15 8 NNE 10
16.02.2019 04:00:00 6,0 5,0 13 7 N 10
16.02.2019 03:00:00 8,0 7,0 15 8 NE 10
16.02.2019 02:00:00 7,0 6,0 15 8 NNE 10

tt = temperature
td = dewpoint
ff = wind speed
dd = wind direction
vv = visibility

Next stations